Time;durP1;ratioP1;P1;durP2;ratioP2;P2;SDS_P1;SDS_P2;PMS_P1;PMS_P2;Temp;Humidity;BMP_temperature;BMP_pressure;BME280_temperature;BME280_humidity;BME280_pressure;Samples;Min_cycle;Max_cycle;Signal;HPM_P1;HPM_P2
2023/10/03 06:03:15;;;;;;;;;;;;;;;;;;5442368;22;20267;-74
2023/10/03 06:05:42;;;;;;;;;;;;;;;;;;5019855;28;19926;-74
2023/10/03 06:08:12;;;;;;;;;;;;;;;;;;5014318;28;19970;-74
2023/10/03 06:10:39;;;;;;;;;;;;;;;;;;5014238;28;19926;-74
2023/10/03 06:13:09;;;;;;;;;;;;;;;;;;5014376;28;19933;-74
2023/10/03 06:15:38;;;;;;;;;;;;;;;;;;5014357;28;21491;-77
2023/10/03 06:18:05;;;;;;;;;;;;;;;;;;5014615;28;19976;-78
2023/10/03 06:20:34;;;;;;;;;;;;;;;;;;5014441;28;19972;-76
2023/10/03 06:23:01;;;;;;;;;;;;;;;;;;5014532;28;19925;-76
2023/10/03 06:25:29;;;;;;;;;;;;;;;;;;5013883;28;19929;-76
2023/10/03 06:27:56;;;;;;;;;;;;;;;;;;5014140;28;20302;-76
2023/10/03 06:30:23;;;;;;;;;;;;;;;;;;5014230;28;19930;-76
2023/10/03 06:32:51;;;;;;;;;;;;;;;;;;5014223;28;19925;-73
2023/10/03 06:35:18;;;;;;;;;;;;;;;;;;5014063;28;19929;-72
2023/10/03 06:37:45;;;;;;;;;;;;;;;;;;5014002;28;19956;-72
2023/10/03 06:40:14;;;;;;;;;;;;;;;;;;5013984;28;20052;-73
2023/10/03 06:42:40;;;;;;;;;;;;;;;;;;5013834;28;20287;-75
2023/10/03 06:45:09;;;;;;;;;;;;;;;;;;5014148;28;19965;-75
2023/10/03 06:47:36;;;;;;;;;;;;;;;;;;5014032;28;19926;-72
2023/10/03 06:50:05;;;;;;;;;;;;;;;;;;5013965;28;19925;-74
2023/10/03 06:52:32;;;;;;;;;;;;;;;;;;5013848;28;19926;-74
2023/10/03 06:54:59;;;;;;;;;;;;;;;;;;5014084;28;19933;-74
2023/10/03 06:57:26;;;;;;;;;;;;;;;;;;5013463;28;20330;-74
2023/10/03 06:59:54;;;;;;;;;;;;;;;;;;5013860;28;19926;-74
2023/10/03 07:02:21;;;;;;;;;;;;;;;;;;5013884;28;20012;-75
2023/10/03 07:04:48;;;;;;;;;;;;;;;;;;5013649;28;19933;-74
2023/10/03 07:07:15;;;;;;;;;;;;;;;;;;5013731;28;20401;-74
2023/10/03 07:09:42;;;;;;;;;;;;;;;;;;5013743;28;19926;-74
2023/10/03 07:12:09;;;;;;;;;;;;;;;;;;5013665;28;19925;-74
2023/10/03 07:14:36;;;;;;;;;;;;;;;;;;5013845;28;19995;-74
2023/10/03 07:17:03;;;;;;;;;;;;;;;;;;5015999;28;19925;-73
2023/10/03 07:19:31;;;;;;;;;;;;;;;;;;5017291;28;20339;-74
2023/10/03 07:21:57;;;;;;;;;;;;;;;;;;5017250;28;19926;-75
2023/10/03 07:24:25;;;;;;;;;;;;;;;;;;5017310;28;19948;-73
2023/10/03 07:26:52;;;;;;;;;;;;;;;;;;5017139;28;19929;-73
2023/10/03 07:29:20;;;;;;;;;;;;;;;;;;5017165;28;19937;-72
2023/10/03 07:31:48;;;;;;;;;;;;;;;;;;5017003;28;19960;-72
2023/10/03 07:34:18;;;;;;;;;;;;;;;;;;5016872;28;20394;-73
2023/10/03 07:36:45;;;;;;;;;;;;;;;;;;5016621;28;19925;-74
2023/10/03 07:39:13;;;;;;;;;;;;;;;;;;5016907;28;20033;-74
2023/10/03 07:41:42;;;;;;;;;;;;;;;;;;5016581;28;19988;-73
2023/10/03 07:44:09;;;;;;;;;;;;;;;;;;5017081;28;19925;-73
2023/10/03 07:46:36;;;;;;;;;;;;;;;;;;5017131;28;20371;-73
2023/10/03 07:49:03;;;;;;;;;;;;;;;;;;5017049;28;19932;-74
2023/10/03 07:51:31;;;;;;;;;;;;;;;;;;5016765;28;19929;-73
2023/10/03 07:53:58;;;;;;;;;;;;;;;;;;5016604;28;19952;-73
2023/10/03 07:56:29;;;;;;;;;;;;;;;;;;5016701;28;19925;-74
2023/10/03 07:58:56;;;;;;;;;;;;;;;;;;5016694;28;19925;-74
2023/10/03 08:01:24;;;;;;;;;;;;;;;;;;5016550;28;20309;-74
2023/10/03 08:03:52;;;;;;;;;;;;;;;;;;5016586;28;19932;-75
2023/10/03 08:06:20;;;;;;;;;;;;;;;;;;5016150;28;19925;-75
2023/10/03 08:08:47;;;;;;;;;;;;;;;;;;5016443;28;19956;-75
2023/10/03 08:11:14;;;;;;;;;;;;;;;;;;5016408;28;19926;-74
2023/10/03 08:13:41;;;;;;;;;;;;;;;;;;5016460;28;19926;-74
2023/10/03 08:16:08;;;;;;;;;;;;;;;;;;5016308;28;19935;-74
2023/10/03 08:18:46;;;;;;;;;;;;;;;;;;5016090;28;19926;-74
2023/10/03 08:21:12;;;;;;;;;;;;;;;;;;5016196;28;19948;-76
2023/10/03 08:23:40;;;;;;;;;;;11.40;99.90;;;;;;5016253;28;19926;-75
2023/10/03 08:26:07;;;;;;;;;;;34.10;28.60;;;;;;5016019;28;19948;-75
2023/10/03 08:28:35;;;;;;;;;;;;;;;;;;5015774;28;19926;-75
2023/10/03 08:31:06;;;;;;;;;;;;;;;;;;5015942;28;19940;-75
2023/10/03 08:33:36;;;;;;;;;;;;;;;;;;5016003;28;20023;-75
2023/10/03 08:36:03;;;;;;;;;;;;;;;;;;5016160;28;19925;-75
2023/10/03 08:38:29;;;;;;;;;;;;;;;;;;5016080;28;19925;-75
2023/10/03 08:40:56;;;;;;;;;;;;;;;;;;5015819;28;19925;-75
2023/10/03 08:43:25;;;;;;;;;;;;;;;;;;5015645;28;19932;-76
2023/10/03 08:45:53;;;;;;;;;;;;;;;;;;5015624;28;19925;-75
2023/10/03 08:48:23;;;;;;;;;;;;;;;;;;5015370;28;20378;-74
2023/10/03 08:50:52;;;;;;;;;;;;;;;;;;5015788;28;19926;-75
2023/10/03 08:53:27;;;;;;;;;;;;;;;;;;5015553;28;19932;-75
2023/10/03 08:55:57;;;;;;;;;;;;;;;;;;5015691;28;19980;-74
2023/10/03 08:58:25;;;;;;;;;;;;;;;;;;5015498;28;20019;-73
2023/10/03 09:00:58;;;;;;;;;;;;;;;;;;5015452;28;19925;-74
2023/10/03 09:03:25;;;;;;;;;;;;;;;;;;5015543;28;19973;-75
2023/10/03 09:05:52;;;;;;;;;;;;;;;;;;5015396;28;19948;-75
2023/10/03 09:08:19;;;;;;;;;;;;;;;;;;5014992;28;19929;-75
2023/10/03 09:10:52;;;;;;;;;;;;;;;;;;5014932;28;20386;-75
2023/10/03 09:13:23;;;;;;;;;;;;;;;;;;5015118;28;19929;-76
2023/10/03 09:15:50;;;;;;;;;;;;;;;;;;5015246;28;19926;-76
2023/10/03 09:18:21;;;;;;;;;;;;;;;;;;5015119;28;19932;-76
2023/10/03 09:20:49;;;;;;;;;;;;;;;;;;5015193;28;19964;-74
2023/10/03 09:23:17;;;;;;;;;;;;;;;;;;5014933;28;19925;-75
2023/10/03 09:25:52;;;;;;;;;;;;;;;;;;5015003;28;20349;-74
2023/10/03 09:28:19;;;;;;;;;;;;;;;;;;5015009;28;19936;-74
2023/10/03 09:30:46;;;;;;;;;;;;;;;;;;5015090;28;19933;-73
2023/10/03 09:33:16;;;;;;;;;;;;;;;;;;5014779;28;19932;-73
2023/10/03 09:35:43;;;;;;;;;;;;;;;;;;5014712;28;20371;-73
2023/10/03 09:38:17;;;;;;;;;;;;;;;;;;5014693;28;19926;-73
2023/10/03 09:40:45;;;;;;;;;;;;;;;;;;5014708;28;19926;-74
2023/10/03 09:43:16;;;;;;;;;;;;;;;;;;5015067;28;19926;-75
2023/10/03 09:45:45;;;;;;;;;;;;;;;;;;5015697;28;19925;-75
2023/10/03 09:48:12;;;;;;;;;;;;;;;;;;5016624;28;19932;-76
2023/10/03 09:50:39;;;;;;;;;;;;;;;;;;5015782;28;20048;-76
2023/10/03 09:53:07;;;;;;;;;;;;;;;;;;5015385;28;20407;-76
2023/10/03 09:55:41;;;;;;;;;;;;;;;;;;5015350;28;19925;-76
2023/10/03 09:58:08;;;;;;;;;;;;;;;;;;5015345;28;19932;-76
2023/10/03 10:00:50;;;;;;;;;;;;;;;;;;5015380;28;19969;-76
2023/10/03 10:03:19;;;;;;;;;;;;;;;;;;5015915;28;19933;-76
2023/10/03 10:05:49;;;;;;;;;;;;;;;;;;5015392;28;19926;-76
2023/10/03 10:08:17;;;;;;;;;;;;;;;;;;5015659;28;20016;-76
2023/10/03 10:10:44;;;;;;;;;;;;;;;;;;5015211;28;20338;-76
2023/10/03 10:13:13;;;;;;;;;;;;;;;;;;5015639;28;20331;-76
2023/10/03 10:15:41;;;;;;;;;;;;;;;;;;5015179;28;20016;-76
2023/10/03 10:18:10;;;;;;;;;;;;;;;;;;5015218;28;20327;-76
2023/10/03 10:20:38;;;;;;;;;;;;;;;;;;5015395;28;19933;-76
2023/10/03 10:23:06;;;;;;;;;;;;;;;;;;5014214;28;19926;-76
2023/10/03 10:25:37;;;;;;;;;;;;;;;;;;5014858;28;19921;-76
2023/10/03 10:28:05;;;;;;;;;;;;;;;;;;5014109;28;19926;-76
2023/10/03 10:30:32;;;;;;;;;;;;;;;;;;5014092;28;19925;-76
2023/10/03 10:32:59;;;;;;;;;;;;;;;;;;5014171;28;19932;-76
2023/10/03 10:35:26;;;;;;;;;;;;;;;;;;5013821;28;20283;-76
2023/10/03 10:37:53;;;;;;;;;;;;;;;;;;5013971;28;19925;-76
2023/10/03 10:40:22;;;;;;;;;;;;;;;;;;5013862;28;19929;-76
2023/10/03 10:42:48;;;;;;;;;;;;;;;;;;5013951;28;19972;-76
2023/10/03 10:45:16;;;;;;;;;;;;;;;;;;5013885;28;19922;-75
2023/10/03 10:47:43;;;;;;;;;;;;;;;;;;5013892;28;19934;-75
2023/10/03 10:50:11;;;;;;;;;;;;;;;;;;5015314;28;19929;-77
2023/10/03 10:52:38;;;;;;;;;;;;;;;;;;5017526;28;20326;-76
2023/10/03 10:55:05;;;;;;;;;;;;;;;;;;5017722;28;19933;-76
2023/10/03 10:57:32;;;;;;;;;;;;;;;;;;5017641;28;19926;-76
2023/10/03 10:59:59;;;;;;;;;;;;;;;;;;5017493;28;20294;-76
2023/10/03 11:02:26;;;;;;;;;;;;;;;;;;5017786;28;19933;-76
2023/10/03 11:04:54;;;;;;;;;;;;;;;;;;5017382;28;20416;-76
2023/10/03 11:07:21;;;;;;;;;;;;;;;;;;5017457;28;19972;-76
2023/10/03 11:09:50;;;;;;;;;;;;;;;;;;5017187;28;19925;-76
2023/10/03 11:12:16;;;;;;;;;;;;;;;;;;5017274;28;19954;-76
2023/10/03 11:14:44;;;;;;;;;;;;;;;;;;5017661;28;19926;-76
2023/10/03 11:17:11;;;;;;;;;;;;;;;;;;5017309;28;19926;-76
2023/10/03 11:19:38;;;;;;;;;;;;;;;;;;5017167;28;19926;-76
2023/10/03 11:22:05;;;;;;;;;;;;;;;;;;5017214;28;19932;-76
2023/10/03 11:24:33;;;;;;;;;;;;;;;;;;5017020;28;20390;-76
2023/10/03 11:26:59;;;;;;;;;;;;;;;;;;5016844;28;20318;-76
2023/10/03 11:29:27;;;;;;;;;;;;;;;;;;5017444;28;19926;-76
2023/10/03 11:31:53;;;;;;;;;;;;;;;;;;5017173;28;19972;-75
2023/10/03 11:34:20;;;;;;;;;;;;;;;;;;5017367;28;19930;-77
2023/10/03 11:36:47;;;;;;;;;;;;;;;;;;5017515;28;19932;-75
2023/10/03 11:39:14;;;;;;;;;;;;;;;;;;5017478;28;19932;-75
2023/10/03 11:41:41;;;;;;;;;;;;;;;;;;5017135;28;20310;-76
2023/10/03 11:44:09;;;;;;;;;;;;;;;;;;5017089;28;19931;-76
2023/10/03 11:46:36;;;;;;;;;;;;;;;;;;5016911;28;19926;-76
2023/10/03 11:49:03;;;;;;;;;;;;;;;;;;5016856;28;20333;-76
2023/10/03 11:51:30;;;;;;;;;;;;;;;;;;5016829;28;19933;-76
2023/10/03 11:53:57;;;;;;;;;;;;;;;;;;5016695;28;19932;-75
2023/10/03 11:56:24;;;;;;;;;;;;;;;;;;5016545;28;19929;-75
2023/10/03 11:58:52;;;;;;;;;;;;;;;;;;5016565;28;19933;-75
2023/10/03 12:01:21;;;;;;;;;;;;;;;;;;5016026;28;20037;-76
2023/10/03 12:03:51;;;;;;;;;;;;;;;;;;5016542;28;19926;-76
2023/10/03 12:06:18;;;;;;;;;;;;;;;;;;5016124;28;19933;-76
2023/10/03 12:08:45;;;;;;;;;;;;;;;;;;5016419;28;19926;-76
2023/10/03 12:11:14;;;;;;;;;;;;;;;;;;5016336;28;20267;-76
2023/10/03 12:13:41;;;;;;;;;;;;;;;;;;5016370;28;19926;-75
2023/10/03 12:16:08;;;;;;;;;;;;;;;;;;5016604;28;19925;-76
2023/10/03 12:18:37;;;;;;;;;;;;;;;;;;5016197;28;19925;-77
2023/10/03 12:21:04;;;;;;;;;;;;;;;;;;5016181;28;19930;-76
2023/10/03 12:23:31;;;;;;;;;;;;;;;;;;5016109;28;19975;-76
2023/10/03 12:25:58;;;;;;;;;;;;;;;;;;5016151;28;19925;-76
2023/10/03 12:28:25;;;;;;;;;;;;;;;;;;5016110;28;19926;-76
2023/10/03 12:30:52;;;;;;;;;;;;;;;;;;5016665;28;19948;-76
2023/10/03 12:33:19;;;;;;;;;;;;;;;;;;5016561;28;19976;-76
2023/10/03 12:35:46;;;;;;;;;;;;;;;;;;5015927;28;19955;-76
2023/10/03 12:38:15;;;;;;;;;;;;;;;;;;5015895;28;19926;-75
2023/10/03 12:40:43;;;;;;;;;;;;;;;;;;5015870;28;19933;-75
2023/10/03 12:43:11;;;;;;;;;;;;;;;;;;5015743;28;19925;-76
2023/10/03 12:45:38;;;;;;;;;;;;;;;;;;5015724;28;19991;-76
2023/10/03 12:48:05;;;;;;;;;;;;;;;;;;5015929;28;19926;-75
2023/10/03 12:50:33;;;;;;;;;;;;;;;;;;5016032;28;19933;-75
2023/10/03 12:53:01;;;;;;;;;;;;;;;;;;5015602;28;19930;-75
2023/10/03 12:55:28;;;;;;;;;;;;;;;;;;5015287;28;19930;-75
2023/10/03 12:57:56;;;;;;;;;;;;;;;;;;5016128;28;19925;-76
2023/10/03 13:00:23;;;;;;;;;;;;;;;;;;5015760;28;19996;-75
2023/10/03 13:02:50;;;;;;;;;;;;;;;;;;5015115;28;20379;-75
2023/10/03 13:05:18;;;;;;;;;;;;;;;;;;5015236;28;19926;-75
2023/10/03 13:07:45;;;;;;;;;;;;;;;;;;5015401;28;20020;-75
2023/10/03 13:10:12;;;;;;;;;;;;;;;;;;5015336;28;19925;-75
2023/10/03 13:12:41;;;;;;;;;;;;;;;;;;5015670;28;19975;-75
2023/10/03 13:15:10;;;;;;;;;;;;;;;;;;5014493;28;19925;-75
2023/10/03 13:17:37;;;;;;;;;;;;;;;;;;5015286;28;20012;-75
2023/10/03 13:20:04;;;;;;;;;;;;;;;;;;5015036;28;19983;-75
2023/10/03 13:22:32;;;;;;;;;;;;;;;;;;5015076;28;19926;-75
2023/10/03 13:24:59;;;;;;;;;;;;;;;;;;5015033;28;19972;-75
2023/10/03 13:27:26;;;;;;;;;;;;;;;;;;5015002;28;19926;-75
2023/10/03 13:29:53;;;;;;;;;;;;;;;;;;5014929;28;19968;-75
2023/10/03 13:32:21;;;;;;;;;;;;;;;;;;5014864;28;19930;-75
2023/10/03 13:34:48;;;;;;;;;;;;;;;;;;5014986;28;19925;-75
2023/10/03 13:37:15;;;;;;;;;;;;;;;;;;5014772;28;19929;-75
2023/10/03 13:39:42;;;;;;;;;;;;;;;;;;5014650;28;20024;-75
2023/10/03 13:42:09;;;;;;;;;;;;;;;;;;5014396;28;20283;-75
2023/10/03 13:44:37;;;;;;;;;;;;;;;;;;5014715;28;20020;-75
2023/10/03 13:47:04;;;;;;;;;;;;;;;;;;5014712;28;19925;-75
2023/10/03 13:49:31;;;;;;;;;;;;;;;;;;5014268;28;20314;-75
2023/10/03 13:52:00;;;;;;;;;;;;;;;;;;5014536;28;19933;-75
2023/10/03 13:54:33;;;;;;;;;;;;;;;;;;5014256;28;20361;-75
2023/10/03 13:57:05;;;;;;;;;;;;;;;;;;5014579;28;19980;-75
2023/10/03 13:59:32;;;;;;;;;;;;;;;;;;5014103;28;20379;-75
2023/10/03 14:01:59;;;;;;;;;;;;;;;;;;5014389;28;19933;-75
2023/10/03 14:04:25;;;;;;;;;;;;;;;;;;5014550;28;19926;-75
2023/10/03 14:06:54;;;;;;;;;;;;;;;;;;5015037;28;20382;-75
2023/10/03 14:09:26;;;;;;;;;;;;;;;;;;5014503;28;19929;-73
2023/10/03 14:11:53;;;;;;;;;;;;;;;;;;5014596;28;19949;-73
2023/10/03 14:14:20;;;;;;;;;;;;;;;;;;5015079;28;19925;-73
2023/10/03 14:16:47;;;;;;;;;;;;;;;;;;5015532;28;19925;-73
2023/10/03 14:19:15;;;;;;;;;;;;;;;;;;5015206;28;19925;-73
2023/10/03 14:21:42;;;;;;;;;;;;;;;;;;5015166;28;19976;-72
2023/10/03 14:24:09;;;;;;;;;;;;;;;;;;5015273;28;19925;-73
2023/10/03 14:26:36;;;;;;;;;;;;;;;;;;5014604;28;19925;-73
2023/10/03 14:29:04;;;;;;;;;;;;;;;;;;5013941;28;20371;-73
2023/10/03 14:31:31;;;;;;;;;;;;;;;;;;5014372;28;20029;-73
2023/10/03 14:33:58;;;;;;;;;;;;;;;;;;5014025;28;19937;-73
2023/10/03 14:36:25;;;;;;;;;;;;;;;;;;5014326;28;20354;-76
2023/10/03 14:38:52;;;;;;;;;;;;;;;;;;5014039;28;19933;-76
2023/10/03 14:41:19;;;;;;;;;;;;;;;;;;5013837;28;19979;-75
2023/10/03 14:43:47;;;;;;;;;;;;;;;;;;5013917;28;19925;-75
2023/10/03 14:46:15;;;;;;;;;;;;;;;;;;5013939;28;19925;-75
2023/10/03 14:48:42;;;;;;;;;;;;;;;;;;5013901;28;19941;-75
2023/10/03 14:51:08;;;;;;;;;;;;;;;;;;5013905;28;19926;-75
2023/10/03 14:53:35;;;;;;;;;;;;;;;;;;5013794;28;20383;-75
2023/10/03 14:56:02;;;;;;;;;;;;;;;;;;5013928;28;19926;-75
2023/10/03 14:58:30;;;;;;;;;;;;;;;;;;5013647;28;19925;-76
2023/10/03 15:00:57;;;;;;;;;;;;;;;;;;5013697;28;19925;-76
2023/10/03 15:03:24;;;;;;;;;;;;;;;;;;5013894;28;19933;-76
2023/10/03 15:05:50;;;;;;;;;;;;;;;;;;5013615;28;20311;-76
2023/10/03 15:08:17;;;;;;;;;;;;;;;;;;5013985;28;19926;-76
2023/10/03 15:10:44;;;;;;;;;;;;;;;;;;5013792;28;19925;-77
2023/10/03 15:13:12;;;;;;;;;;;;;;;;;;5013822;28;19929;-76
2023/10/03 15:15:39;;;;;;;;;;;;;;;;;;5013643;28;19929;-77
2023/10/03 15:18:05;;;;;;;;;;;;;;;;;;5013896;28;19925;-76
2023/10/03 15:20:33;;;;;;;;;;;;;;;;;;5013617;28;19926;-76
2023/10/03 15:23:02;;;;;;;;;;;;;;;;;;5013596;28;19930;-76
2023/10/03 15:25:29;;;;;;;;;;;;;;;;;;5014259;28;19926;-75
2023/10/03 15:27:57;;;;;;;;;;;;;;;;;;5013604;28;19933;-75
2023/10/03 15:30:24;;;;;;;;;;;;;;;;;;5013657;28;19925;-75
2023/10/03 15:32:51;;;;;;;;;;;;;;;;;;5013517;28;19929;-75
2023/10/03 15:35:19;;;;;;;;;;;;;;;;;;5013584;28;19925;-74
2023/10/03 15:37:46;;;;;;;;;;;;;;;;;;5015297;28;19980;-74
2023/10/03 15:40:15;;;;;;;;;;;;;;;;;;5016816;28;20409;-74
2023/10/03 15:42:42;;;;;;;;;;;;;;;;;;5016902;28;19925;-74
2023/10/03 15:45:11;;;;;;;;;;;;;;;;;;5016735;28;19926;-74
2023/10/03 15:47:38;;;;;;;;;;;;;;;;;;5016788;28;19926;-74
2023/10/03 15:50:06;;;;;;;;;;;;;;;;;;5016844;28;19925;-74
2023/10/03 15:52:33;;;;;;;;;;;;;;;;;;5016724;28;20347;-72
2023/10/03 15:55:00;;;;;;;;;;;;;;;;;;5017176;28;19932;-71
2023/10/03 15:57:27;;;;;;;;;;;;;;;;;;5016753;28;19925;-71
2023/10/03 15:59:53;;;;;;;;;;;;;;;;;;5016708;28;19933;-71
2023/10/03 16:02:21;;;;;;;;;;;;;;;;;;5016321;28;20295;-71
2023/10/03 16:04:48;;;;;;;;;;;;;;;;;;5016334;28;19926;-71
2023/10/03 16:07:16;;;;;;;;;;;;;;;;;;5016579;28;19933;-71
2023/10/03 16:09:45;;;;;;;;;;;;;;;;;;5016342;28;19925;-71
2023/10/03 16:12:12;;;;;;;;;;;;;;;;;;5016281;28;20379;-72
2023/10/03 16:14:41;;;;;;;;;;;;;;;;;;5016468;28;20334;-71
2023/10/03 16:17:09;;;;;;;;;;;;;;;;;;5016469;28;20028;-71
2023/10/03 16:19:36;;;;;;;;;;;;;;;;;;5016083;28;19980;-71
2023/10/03 16:22:03;;;;;;;;;;;;;;;;;;5016078;28;19932;-71
2023/10/03 16:24:31;;;;;;;;;;;;;;;;;;5016258;28;20024;-71
2023/10/03 16:26:58;;;;;;;;;;;;;;;;;;5016066;28;19972;-71
2023/10/03 16:29:27;;;;;;;;;;;;;;;;;;5016513;28;20017;-71
2023/10/03 16:31:54;;;;;;;;;;;;;;;;;;5015886;28;19925;-71
2023/10/03 16:34:21;;;;;;;;;;;;;;;;;;5016080;28;19926;-71
2023/10/03 16:36:49;;;;;;;;;;;;;;;;;;5015939;28;20437;-71
2023/10/03 16:39:16;;;;;;;;;;;;;;;;;;5015722;28;19926;-71
2023/10/03 16:41:43;;;;;;;;;;;;;;;;;;5015788;28;19926;-71
2023/10/03 16:44:10;;;;;;;;;;;;;;;;;;5015756;28;19925;-71
2023/10/03 16:46:37;;;;;;;;;;;;;;;;;;5015874;28;19949;-71
2023/10/03 16:49:05;;;;;;;;;;;;;;;;;;5015930;28;19941;-72
2023/10/03 16:51:33;;;;;;;;;;;;;;;;;;5015592;28;20025;-72
2023/10/03 16:54:02;;;;;;;;;;;;;;;;;;5015391;28;19926;-72
2023/10/03 16:56:29;;;;;;;;;;;;;;;;;;5016063;28;19926;-73
2023/10/03 16:58:56;;;;;;;;;;;;;;;;;;5015803;28;19930;-71
2023/10/03 17:01:23;;;;;;;;;;;;;;;;;;5015867;28;19926;-71
2023/10/03 17:03:50;;;;;;;;;;;;;;;;;;5015948;28;19974;-71
2023/10/03 17:06:18;;;;;;;;;;;;;;;;;;5015285;28;19925;-76
2023/10/03 17:08:46;;;;;;;;;;;;;;;;;;5015656;28;19932;-72
2023/10/03 17:11:13;;;;;;;;;;;;;;;;;;5015332;28;19979;-73
2023/10/03 17:13:40;;;;;;;;;;;;;;;;;;5014901;28;20298;-72
2023/10/03 17:16:07;;;;;;;;;;;;;;;;;;5015355;28;19925;-73
2023/10/03 17:18:34;;;;;;;;;;;;;;;;;;5015161;28;19972;-72
2023/10/03 17:21:01;;;;;;;;;;;;;;;;;;5015108;28;19933;-72
2023/10/03 17:23:29;;;;;;;;;;;;;;;;;;5015130;28;20290;-72
2023/10/03 17:25:56;;;;;;;;;;;;;;;;;;5015122;28;19968;-73
2023/10/03 17:28:23;;;;;;;;;;;;;;;;;;5014948;28;19933;-73
2023/10/03 17:30:50;;;;;;;;;;;;;;;;;;5014910;28;19925;-72
2023/10/03 17:33:17;;;;;;;;;;;;;;;;;;5014730;28;19926;-73
2023/10/03 17:35:44;;;;;;;;;;;;;;;;;;5014603;28;19927;-73
2023/10/03 17:38:12;;;;;;;;;;;;;;;;;;5014861;28;19930;-73
2023/10/03 17:40:39;;;;;;;;;;;;;;;;;;5014780;28;19932;-72
2023/10/03 17:43:07;;;;;;;;;;;;;;;;;;5014664;28;20295;-74
2023/10/03 17:45:36;;;;;;;;;;;;;;;;;;5014321;28;20413;-73
2023/10/03 17:48:03;;;;;;;;;;;;;;;;;;5014616;28;19980;-73
2023/10/03 17:50:30;;;;;;;;;;;;;;;;;;5014632;28;19991;-72
2023/10/03 17:52:57;;;;;;;;;;;;;;;;;;5014234;28;19929;-73
2023/10/03 17:55:24;;;;;;;;;;;;;;;;;;5014832;28;19925;-73
2023/10/03 17:57:51;;;;;;;;;;;;;;;;;;5014654;28;19926;-76
2023/10/03 18:00:18;;;;;;;;;;;;;;;;;;5014156;28;19930;-75
2023/10/03 18:02:46;;;;;;;;;;;;;;;;;;5014668;28;19932;-77
2023/10/03 18:05:15;;;;;;;;;;;;;;;;;;5014106;28;19937;-76
2023/10/03 18:07:42;;;;;;;;;;;;;;;;;;5014550;28;20020;-74
2023/10/03 18:10:09;;;;;;;;;;;;;;;;;;5014192;28;19933;-74
2023/10/03 18:12:36;;;;;;;;;;;;;;;;;;5015585;28;19933;-76
2023/10/03 18:15:03;;;;;;;;;;;;;;;;;;5015040;28;19941;-77
2023/10/03 18:17:30;;;;;;;;;;;;;;;;;;5021818;28;19925;-78
2023/10/03 18:19:57;;;;;;;;;;;;;;;;;;5027455;28;20387;-79
2023/10/03 18:22:24;;;;;;;;;;;;;;;;;;5022079;28;19926;-81
2023/10/03 18:24:51;;;;;;;;;;;;;;;;;;5019346;28;20299;-80
2023/10/03 18:27:17;;;;;;;;;;;;;;;;;;5016915;28;19926;-79
2023/10/03 18:29:45;;;;;;;;;;;;;;;;;;5020089;28;19925;-79
2023/10/03 18:32:12;;;;;;;;;;;;;;;;;;5019676;28;19975;-78
2023/10/03 18:34:40;;;;;;;;;;;;;;;;;;5017811;28;20299;-80
2023/10/03 18:37:07;;;;;;;;;;;;;;;;;;5020166;28;19926;-77
2023/10/03 18:39:34;;;;;;;;;;;;;;;;;;5017719;28;19926;-78
2023/10/03 18:42:01;;;;;;;;;;;;;;;;;;5019679;28;19988;-78
2023/10/03 18:44:28;;;;;;;;;;;;;;;;;;5028690;28;19925;-77
2023/10/03 18:46:54;;;;;;;;;;;;;;;;;;5029324;28;19932;-74
2023/10/03 18:49:22;;;;;;;;;;;;;;;;;;5024813;28;19925;-75
2023/10/03 18:51:48;;;;;;;;;;;;;;;;;;5022600;28;19926;-75
2023/10/03 18:54:16;;;;;;;;;;;;;;;;;;5015451;28;19933;-74
2023/10/03 18:56:43;;;;;;;;;;;;;;;;;;5014332;28;20417;-74
2023/10/03 18:59:11;;;;;;;;;;;;;;;;;;5014627;28;19933;-74
2023/10/03 19:01:37;;;;;;;;;;;;;;;;;;5013952;28;19926;-74
2023/10/03 19:04:04;;;;;;;;;;;;;;;;;;5013669;28;19925;-75
2023/10/03 19:06:34;;;;;;;;;;;;;;;;;;5014479;28;19925;-75
2023/10/03 19:09:01;;;;;;;;;;;;;;;;;;5013995;28;19926;-75
2023/10/03 19:11:29;;;;;;;;;;;;;;;;;;5013834;28;19926;-75
2023/10/03 19:13:56;;;;;;;;;;;;;;;;;;5017480;28;19976;-75
2023/10/03 19:16:23;;;;;;;;;;;;;;;;;;5017357;28;20406;-74
2023/10/03 19:18:50;;;;;;;;;;;;;;;;;;5017496;28;19926;-74
2023/10/03 19:21:17;;;;;;;;;;;;;;;;;;5017321;28;20052;-73
2023/10/03 19:23:44;;;;;;;;;;;;;;;;;;5017389;28;19929;-74
2023/10/03 19:26:11;;;;;;;;;;;;;;;;;;5017836;28;20012;-73
2023/10/03 19:28:39;;;;;;;;;;;;;;;;;;5018167;28;19925;-74
2023/10/03 19:31:07;;;;;;;;;;;;;;;;;;5017357;28;19969;-73
2023/10/03 19:33:34;;;;;;;;;;;;;;;;;;5017056;28;19975;-73
2023/10/03 19:36:01;;;;;;;;;;;;;;;;;;5017186;28;19926;-72
2023/10/03 19:38:29;;;;;;;;;;;;;;;;;;5017469;28;20025;-72
2023/10/03 19:40:57;;;;;;;;;;;;;;;;;;5017049;28;20295;-75
2023/10/03 19:43:25;;;;;;;;;;;;;;;;;;5017239;28;19930;-75
2023/10/03 19:45:52;;;;;;;;;;;;;;;;;;5017183;28;19925;-76
2023/10/03 19:48:19;;;;;;;;;;;;;;;;;;5017193;28;19929;-75
2023/10/03 19:50:47;;;;;;;;;;;;;;;;;;5016805;28;19933;-77
2023/10/03 19:53:14;;;;;;;;;;;;;;;;;;5016736;28;19929;-76
2023/10/03 19:55:41;;;;;;;;;;;;;;;;;;5017124;28;19933;-75
2023/10/03 19:58:07;;;;;;;;;;;;;;;;;;5017025;28;19972;-76
2023/10/03 20:00:34;;;;;;;;;;;;;;;;;;5016775;28;20291;-75
2023/10/03 20:03:02;;;;;;;;;;;;;;;;;;5016487;28;19925;-75
2023/10/03 20:05:29;;;;;;;;;;;;;;;;;;5016291;28;19976;-74
2023/10/03 20:07:56;;;;;;;;;;;;;;;;;;5016207;28;20403;-75
2023/10/03 20:10:23;;;;;;;;;;;;;;;;;;5016438;28;19930;-74
2023/10/03 20:12:51;;;;;;;;;;;;;;;;;;5016256;28;20394;-74
2023/10/03 20:15:19;;;;;;;;;;;;;;;;;;5016132;28;19968;-74
2023/10/03 20:17:47;;;;;;;;;;;;;;;;;;5016495;28;19926;-74
2023/10/03 20:20:14;;;;;;;;;;;;;;;;;;5016564;28;19930;-74
2023/10/03 20:22:41;;;;;;;;;;;;;;;;;;5015836;28;19933;-75
2023/10/03 20:25:08;;;;;;;;;;;;;;;;;;5016312;28;19925;-75
2023/10/03 20:27:35;;;;;;;;;;;;;;;;;;5016324;28;20338;-75
2023/10/03 20:30:02;;;;;;;;;;;;;;;;;;5016445;28;19926;-74
2023/10/03 20:32:29;;;;;;;;;;;;;;;;;;5016128;28;20033;-75
2023/10/03 20:34:56;;;;;;;;;;;;;;;;;;5016059;28;19926;-76
2023/10/03 20:37:24;;;;;;;;;;;;;;;;;;5015835;28;19926;-76
2023/10/03 20:39:55;;;;;;;;;;;;;;;;;;5016035;28;19925;-76
2023/10/03 20:42:22;;;;;;;;;;;;;;;;;;5015852;28;19925;-76
2023/10/03 20:44:49;;;;;;;;;;;;;;;;;;5015855;28;19926;-75
2023/10/03 20:47:16;;;;;;;;;;;;;;;;;;5015783;28;19929;-75
2023/10/03 20:49:45;;;;;;;;;;;;;;;;;;5015880;28;19963;-75
2023/10/03 20:52:12;;;;;;;;;;;;;;;;;;5015753;28;19931;-76
2023/10/03 20:54:39;;;;;;;;;;;;;;;;;;5015817;28;19929;-77
2023/10/03 20:57:06;;;;;;;;;;;;;;;;;;5015946;28;19926;-76
2023/10/03 20:59:33;;;;;;;;;;;;;;;;;;5015559;28;19926;-76
2023/10/03 21:02:00;;;;;;;;;;;;;;;;;;5015497;28;19925;-76
2023/10/03 21:04:27;;;;;;;;;;;;;;;;;;5015141;28;20367;-76
2023/10/03 21:06:54;;;;;;;;;;;;;;;;;;5015196;28;20284;-74
2023/10/03 21:09:22;;;;;;;;;;;;;;;;;;5015395;28;19925;-73
2023/10/03 21:11:48;;;;;;;;;;;;;;;;;;5015287;28;20019;-74
2023/10/03 21:14:15;;;;;;;;;;;;;;;;;;5015545;28;20401;-75
2023/10/03 21:16:42;;;;;;;;;;;;;;;;;;5015298;28;19925;-76
2023/10/03 21:19:09;;;;;;;;;;;;;;;;;;5015390;28;19979;-77
2023/10/03 21:21:36;;;;;;;;;;;;;;;;;;5015717;28;19992;-75
2023/10/03 21:24:06;;;;;;;;;;;;;;;;;;5015313;28;19926;-78
2023/10/03 21:26:33;;;;;;;;;;;;;;;;;;5015175;28;19925;-78
2023/10/03 21:29:00;;;;;;;;;;;;;;;;;;5015099;28;19926;-77
2023/10/03 21:31:27;;;;;;;;;;;;;;;;;;5015718;28;19925;-78
2023/10/03 21:33:54;;;;;;;;;;;;;;;;;;5016218;28;20083;-78
2023/10/03 21:36:22;;;;;;;;;;;;;;;;;;5014426;28;19933;-77
2023/10/03 21:38:49;;;;;;;;;;;;;;;;;;5014742;28;20379;-77
2023/10/03 21:41:16;;;;;;;;;;;;;;;;;;5014921;28;20020;-78
2023/10/03 21:43:43;;;;;;;;;;;;;;;;;;5015342;28;19976;-78
2023/10/03 21:46:12;;;;;;;;;;;;;;;;;;5016323;28;19932;-79
2023/10/03 21:48:39;;;;;;;;;;;;;;;;;;5014715;28;20383;-78
2023/10/03 21:51:06;;;;;;;;;;;;;;;;;;5014863;28;19932;-77
2023/10/03 21:53:35;;;;;;;;;;;;;;;;;;5015961;28;19980;-77
